createdAt,value
2023-07-21T00:15:13.162Z,17.80
2023-07-21T00:17:41.727Z,17.90
2023-07-21T00:20:28.243Z,18.00
2023-07-21T00:22:56.916Z,17.70
2023-07-21T00:25:25.403Z,17.70
2023-07-21T00:27:54.605Z,17.80
2023-07-21T00:30:24.624Z,18.00
2023-07-21T00:32:53.525Z,18.10
2023-07-21T00:35:23.671Z,18.10
2023-07-21T00:37:52.468Z,18.00
2023-07-21T00:40:26.112Z,18.10
2023-07-21T00:42:54.717Z,18.10
2023-07-21T00:45:23.850Z,18.10
2023-07-21T00:47:54.217Z,18.10
2023-07-21T00:50:23.035Z,18.10
2023-07-21T00:52:52.264Z,17.90
2023-07-21T00:55:21.522Z,17.80
2023-07-21T00:57:50.083Z,17.70
2023-07-21T01:00:18.645Z,17.60
2023-07-21T01:02:52.432Z,17.40
2023-07-21T01:05:21.949Z,17.20
2023-07-21T01:07:52.374Z,17.30
2023-07-21T01:10:24.696Z,17.40
2023-07-21T01:12:56.884Z,17.30
2023-07-21T01:15:33.206Z,17.20
2023-07-21T01:18:02.024Z,17.20
2023-07-21T01:20:31.586Z,17.20
2023-07-21T01:23:14.244Z,17.20
2023-07-21T01:25:46.869Z,17.10
2023-07-21T01:28:16.473Z,17.00
2023-07-21T01:30:48.604Z,17.10
2023-07-21T01:33:26.006Z,17.00
2023-07-21T01:35:55.836Z,17.00
2023-07-21T01:38:25.444Z,16.90
2023-07-21T01:40:54.416Z,16.80
2023-07-21T01:43:26.020Z,16.80
2023-07-21T01:45:54.877Z,16.90
2023-07-21T01:48:24.077Z,16.80
2023-07-21T01:50:56.673Z,16.80
2023-07-21T01:53:26.648Z,16.80
2023-07-21T01:56:01.436Z,16.60
2023-07-21T01:58:32.428Z,16.40
2023-07-21T02:01:01.599Z,16.40
2023-07-21T02:03:31.419Z,16.50
2023-07-21T02:05:59.991Z,16.60
2023-07-21T02:08:28.676Z,16.60
2023-07-21T02:11:00.427Z,16.60
2023-07-21T02:13:48.245Z,16.50
2023-07-21T02:16:19.843Z,16.50
2023-07-21T02:18:49.261Z,16.50
2023-07-21T02:21:17.912Z,16.60
2023-07-21T02:23:46.711Z,16.70
2023-07-21T02:26:17.235Z,16.80
2023-07-21T02:28:46.214Z,16.70
2023-07-21T02:31:22.842Z,16.70
2023-07-21T02:33:54.577Z,16.90
2023-07-21T02:36:25.458Z,17.00
2023-07-21T02:38:54.978Z,17.10
2023-07-21T02:41:23.641Z,16.90
2023-07-21T02:43:57.369Z,16.90
2023-07-21T02:46:29.099Z,17.00
2023-07-21T02:48:59.261Z,17.10
2023-07-21T02:51:29.868Z,17.10
2023-07-21T02:53:58.500Z,17.20
2023-07-21T02:56:28.396Z,17.30
2023-07-21T02:59:04.943Z,17.30
2023-07-21T03:01:41.474Z,17.30
2023-07-21T03:04:10.965Z,17.30
2023-07-21T03:06:55.518Z,17.30
2023-07-21T03:09:27.236Z,17.30
2023-07-21T03:11:58.995Z,17.30
2023-07-21T03:15:05.402Z,17.20
2023-07-21T03:17:47.410Z,17.20
2023-07-21T03:20:17.671Z,17.30
2023-07-21T03:22:51.288Z,17.20
2023-07-21T03:25:25.306Z,17.20
2023-07-21T03:27:56.968Z,17.20
2023-07-21T03:30:26.571Z,17.20
2023-07-21T03:33:02.392Z,17.30
2023-07-21T03:35:34.428Z,17.30
2023-07-21T03:38:03.235Z,17.30
2023-07-21T03:40:31.995Z,17.30
2023-07-21T03:43:00.491Z,17.20
2023-07-21T03:45:32.069Z,17.30
2023-07-21T03:48:00.523Z,17.20
2023-07-21T03:50:30.627Z,17.20
2023-07-21T03:52:59.331Z,17.20
2023-07-21T03:55:28.310Z,17.20
2023-07-21T03:57:58.998Z,17.10
2023-07-21T04:00:28.249Z,17.10
2023-07-21T04:02:56.945Z,17.10
2023-07-21T04:05:28.739Z,17.10
2023-07-21T04:07:57.818Z,17.10
2023-07-21T04:10:29.484Z,17.20
2023-07-21T04:13:11.524Z,17.10
2023-07-21T04:15:40.170Z,17.10
2023-07-21T04:18:09.553Z,17.20
2023-07-21T04:20:38.672Z,17.20
2023-07-21T04:23:07.139Z,17.20
2023-07-21T04:25:35.716Z,17.30
2023-07-21T04:28:08.427Z,17.30
2023-07-21T04:30:38.771Z,17.40
2023-07-21T04:33:07.322Z,17.40
2023-07-21T04:35:36.833Z,17.50
2023-07-21T04:38:12.274Z,17.50
2023-07-21T04:40:48.962Z,17.50
2023-07-21T04:43:19.302Z,17.50
2023-07-21T04:45:48.726Z,17.50
2023-07-21T04:48:32.632Z,17.40
2023-07-21T04:51:04.093Z,17.40
2023-07-21T04:53:32.883Z,17.40
2023-07-21T04:56:01.721Z,17.40
2023-07-21T04:58:37.339Z,17.40
2023-07-21T05:01:11.006Z,17.40
2023-07-21T05:03:40.011Z,17.40
2023-07-21T05:06:12.437Z,17.40
2023-07-21T05:08:43.999Z,17.50
2023-07-21T05:11:13.592Z,17.50
2023-07-21T05:13:42.493Z,17.60
2023-07-21T05:16:21.349Z,17.60
2023-07-21T05:19:20.257Z,17.60
2023-07-21T05:22:07.236Z,17.60
2023-07-21T05:24:53.247Z,17.60
2023-07-21T05:27:24.526Z,17.70
2023-07-21T05:29:56.763Z,17.70
2023-07-21T05:32:26.057Z,17.80
2023-07-21T05:35:01.052Z,17.90
2023-07-21T05:37:33.043Z,17.90
2023-07-21T05:40:02.281Z,18.00
2023-07-21T05:42:35.122Z,18.10
2023-07-21T05:45:05.190Z,18.20
2023-07-21T05:47:34.515Z,18.30
2023-07-21T05:50:06.627Z,18.30
2023-07-21T05:52:36.850Z,18.30
2023-07-21T05:55:07.744Z,18.40
2023-07-21T05:57:37.149Z,18.40
2023-07-21T06:00:07.606Z,18.40
2023-07-21T06:02:41.362Z,18.40
2023-07-21T06:05:12.623Z,18.40
2023-07-21T06:07:48.932Z,18.50
2023-07-21T06:10:38.914Z,18.60
2023-07-21T06:13:25.673Z,18.80
2023-07-21T06:16:20.214Z,19.20
2023-07-21T06:18:49.085Z,19.50
2023-07-21T06:21:17.237Z,19.70
2023-07-21T06:23:47.989Z,19.80
2023-07-21T06:26:29.762Z,19.90
2023-07-21T06:29:07.006Z,19.80
2023-07-21T06:31:36.008Z,19.80
2023-07-21T06:34:39.791Z,19.90
2023-07-21T06:37:38.148Z,20.20
2023-07-21T06:40:24.880Z,20.30
2023-07-21T06:43:17.542Z,20.40
2023-07-21T06:46:24.695Z,20.50
2023-07-21T06:49:17.380Z,20.90
2023-07-21T06:51:50.941Z,21.40
2023-07-21T06:54:23.496Z,21.70
2023-07-21T06:56:54.624Z,21.80
2023-07-21T06:59:24.989Z,21.80
2023-07-21T07:02:03.585Z,21.80
2023-07-21T07:04:36.147Z,21.80
2023-07-21T07:07:08.748Z,21.80
2023-07-21T07:09:38.782Z,21.70
2023-07-21T07:12:08.811Z,21.60
2023-07-21T07:14:37.208Z,21.50
2023-07-21T07:17:05.626Z,21.50
2023-07-21T07:19:34.038Z,21.60
2023-07-21T07:22:02.307Z,22.00
2023-07-21T07:24:30.565Z,22.40
2023-07-21T07:26:58.899Z,22.80
2023-07-21T07:29:27.332Z,23.10
2023-07-21T07:31:56.039Z,23.40
2023-07-21T07:34:24.225Z,23.70
2023-07-21T07:36:54.117Z,23.70
2023-07-21T07:39:22.752Z,23.60
2023-07-21T07:41:56.138Z,23.50
2023-07-21T07:44:24.760Z,23.20
2023-07-21T07:46:57.332Z,23.40
2023-07-21T07:49:25.627Z,23.50
2023-07-21T07:51:53.718Z,23.90
2023-07-21T07:54:21.900Z,24.20
2023-07-21T07:56:50.610Z,24.10
2023-07-21T07:59:18.894Z,24.10
2023-07-21T08:01:47.362Z,24.30
2023-07-21T08:04:23.080Z,24.70
2023-07-21T08:06:53.695Z,24.70
2023-07-21T08:09:21.869Z,24.60
2023-07-21T08:11:54.041Z,24.70
2023-07-21T08:14:22.326Z,24.90
2023-07-21T08:16:52.993Z,25.10
2023-07-21T08:19:27.988Z,25.40
2023-07-21T08:21:58.861Z,25.70
2023-07-21T08:24:30.985Z,26.10
2023-07-21T08:27:10.088Z,26.40
2023-07-21T08:29:38.681Z,26.70
2023-07-21T08:32:07.753Z,26.40
2023-07-21T08:34:36.092Z,26.20
2023-07-21T08:37:04.266Z,26.60
2023-07-21T08:39:32.906Z,27.00
2023-07-21T08:42:01.842Z,27.10
2023-07-21T08:44:30.753Z,27.10
2023-07-21T08:46:58.942Z,27.10
2023-07-21T08:49:27.040Z,27.30
2023-07-21T08:51:55.106Z,27.40
2023-07-21T08:54:23.347Z,27.50
2023-07-21T08:56:51.540Z,28.00
2023-07-21T08:59:22.909Z,28.30
2023-07-21T09:01:51.065Z,28.60
2023-07-21T09:04:25.865Z,28.40
2023-07-21T09:06:54.646Z,28.30
2023-07-21T09:09:23.327Z,28.10
2023-07-21T09:11:51.747Z,27.90
2023-07-21T09:14:19.866Z,27.90
2023-07-21T09:16:51.526Z,27.80
2023-07-21T09:19:22.864Z,27.60
2023-07-21T09:21:56.197Z,27.00
2023-07-21T09:24:24.510Z,26.70
2023-07-21T09:26:55.297Z,26.30
2023-07-21T09:29:23.662Z,26.10
2023-07-21T09:31:51.766Z,26.00
2023-07-21T09:34:19.880Z,25.90
2023-07-21T09:36:48.015Z,25.90
2023-07-21T09:39:17.308Z,25.90
2023-07-21T09:41:46.621Z,25.90
2023-07-21T09:44:15.759Z,25.90
2023-07-21T09:46:44.406Z,25.90
2023-07-21T09:49:13.211Z,25.90
2023-07-21T09:51:41.786Z,25.90
2023-07-21T09:54:12.545Z,25.80
2023-07-21T09:56:42.282Z,25.60
2023-07-21T09:59:11.728Z,25.50
2023-07-21T10:01:40.509Z,25.50
2023-07-21T10:04:09.034Z,25.40
2023-07-21T10:06:37.727Z,25.40
2023-07-21T10:09:06.650Z,25.50
2023-07-21T10:11:34.743Z,25.60
2023-07-21T10:14:02.873Z,25.70
2023-07-21T10:16:31.745Z,25.70
2023-07-21T10:19:13.421Z,25.70
2023-07-21T10:21:52.937Z,25.80
2023-07-21T10:24:24.660Z,25.90
2023-07-21T10:26:57.666Z,26.00
2023-07-21T10:29:25.962Z,26.00
2023-07-21T10:31:54.949Z,25.80
2023-07-21T10:34:27.246Z,25.90
2023-07-21T10:36:55.314Z,25.70
2023-07-21T10:39:25.713Z,25.80
2023-07-21T10:41:57.793Z,25.80
2023-07-21T10:44:26.245Z,25.80
2023-07-21T10:46:54.414Z,25.80
2023-07-21T10:49:22.625Z,26.10
2023-07-21T10:51:51.399Z,26.70
2023-07-21T10:54:19.979Z,27.20
2023-07-21T10:56:49.164Z,27.40
2023-07-21T10:59:20.535Z,27.30
2023-07-21T11:01:49.711Z,27.70
2023-07-21T11:04:18.867Z,27.90
2023-07-21T11:06:51.749Z,28.00
2023-07-21T11:09:20.634Z,27.90
2023-07-21T11:11:49.750Z,28.00
2023-07-21T11:14:20.730Z,28.00
2023-07-21T11:16:56.060Z,28.10
2023-07-21T11:19:28.140Z,28.20
2023-07-21T11:21:59.378Z,28.30
2023-07-21T11:24:29.640Z,28.30
2023-07-21T11:27:06.703Z,28.40
2023-07-21T11:29:38.798Z,28.40
2023-07-21T11:32:24.128Z,28.60
2023-07-21T11:35:00.327Z,29.10
2023-07-21T11:37:39.834Z,29.00
2023-07-21T11:40:13.863Z,29.00
2023-07-21T11:42:45.642Z,28.70
2023-07-21T11:45:32.606Z,28.30
2023-07-21T11:48:01.280Z,27.80
2023-07-21T11:50:30.806Z,27.60
2023-07-21T11:53:00.313Z,27.10
2023-07-21T11:55:28.775Z,27.00
2023-07-21T11:57:57.192Z,27.10
2023-07-21T12:00:27.340Z,27.30
2023-07-21T12:03:01.010Z,27.60
2023-07-21T12:05:29.437Z,27.50
2023-07-21T12:07:57.505Z,27.40
2023-07-21T12:10:25.763Z,27.30
2023-07-21T12:12:54.573Z,26.90
2023-07-21T12:15:24.090Z,26.90
2023-07-21T12:17:52.284Z,26.90
2023-07-21T12:20:27.250Z,27.00
2023-07-21T12:22:58.373Z,27.10
2023-07-21T12:25:27.808Z,27.30
2023-07-21T12:27:58.153Z,27.60
2023-07-21T12:30:26.592Z,27.80
2023-07-21T12:32:54.754Z,27.50
2023-07-21T12:35:22.865Z,27.20
2023-07-21T12:37:50.970Z,27.00
2023-07-21T12:40:19.184Z,27.00
2023-07-21T12:42:47.221Z,27.00
2023-07-21T12:45:15.228Z,27.00
2023-07-21T12:47:43.257Z,27.00
2023-07-21T12:50:11.765Z,27.30
2023-07-21T12:52:39.846Z,27.50
2023-07-21T12:55:08.416Z,27.90
2023-07-21T12:57:36.678Z,28.40
2023-07-21T13:00:05.246Z,28.90
2023-07-21T13:02:34.940Z,28.60
2023-07-21T13:05:03.120Z,28.60
2023-07-21T13:07:31.242Z,28.30
2023-07-21T13:09:59.476Z,28.00
2023-07-21T13:12:28.311Z,27.80
2023-07-21T13:14:56.429Z,27.70
2023-07-21T13:17:24.646Z,27.50
2023-07-21T13:19:52.908Z,27.50
2023-07-21T13:22:20.990Z,27.60
2023-07-21T13:24:49.252Z,27.40
2023-07-21T13:27:17.754Z,27.30
2023-07-21T13:29:46.233Z,26.90
2023-07-21T13:32:14.293Z,26.80
2023-07-21T13:34:42.421Z,26.80
2023-07-21T13:37:10.520Z,26.70
2023-07-21T13:39:38.742Z,26.70
2023-07-21T13:42:06.963Z,26.80
2023-07-21T13:44:35.931Z,26.70
2023-07-21T13:47:04.003Z,26.70
2023-07-21T13:49:32.267Z,26.90
2023-07-21T13:52:01.187Z,27.00
2023-07-21T13:54:29.273Z,27.00
2023-07-21T13:56:57.546Z,27.10
2023-07-21T13:59:25.789Z,26.90
2023-07-21T14:01:53.928Z,26.70
2023-07-21T14:04:21.969Z,26.60
2023-07-21T14:06:50.006Z,26.40
2023-07-21T14:09:18.923Z,26.50
2023-07-21T14:11:47.178Z,26.40
2023-07-21T14:14:15.197Z,26.20
2023-07-21T14:16:43.303Z,26.10
2023-07-21T14:19:11.419Z,26.20
2023-07-21T14:21:39.609Z,26.20
2023-07-21T14:24:07.758Z,26.20
2023-07-21T14:26:36.713Z,26.10
2023-07-21T14:29:08.578Z,26.00
2023-07-21T14:31:38.351Z,26.00
2023-07-21T14:34:09.532Z,26.00
2023-07-21T14:36:38.432Z,26.00
2023-07-21T14:39:06.747Z,25.70
2023-07-21T14:41:34.959Z,25.60
2023-07-21T14:44:03.012Z,25.60
2023-07-21T14:46:31.202Z,25.60
2023-07-21T14:48:59.257Z,25.60
2023-07-21T14:51:27.356Z,25.60
2023-07-21T14:53:56.090Z,25.60
2023-07-21T14:56:24.596Z,25.60
2023-07-21T14:58:52.922Z,25.60
2023-07-21T15:01:21.492Z,25.60
2023-07-21T15:03:49.723Z,25.60
2023-07-21T15:06:20.177Z,25.60
2023-07-21T15:08:49.259Z,25.60
2023-07-21T15:11:17.289Z,25.40
2023-07-21T15:13:45.632Z,25.30
2023-07-21T15:16:13.724Z,25.10
2023-07-21T15:18:41.810Z,25.10
2023-07-21T15:21:09.928Z,25.00
2023-07-21T15:23:37.964Z,24.90
2023-07-21T15:26:06.023Z,24.90
2023-07-21T15:28:34.118Z,24.90
2023-07-21T15:31:05.718Z,24.80
2023-07-21T15:33:34.090Z,24.60
2023-07-21T15:36:02.441Z,24.60
2023-07-21T15:38:30.910Z,24.50
2023-07-21T15:40:59.828Z,24.40
2023-07-21T15:43:28.124Z,24.20
2023-07-21T15:45:58.921Z,24.10
2023-07-21T15:48:27.689Z,24.10
2023-07-21T15:50:55.809Z,23.90
2023-07-21T15:53:28.762Z,23.80
2023-07-21T15:55:59.996Z,23.30
2023-07-21T15:58:28.171Z,23.00
2023-07-21T16:01:02.213Z,22.80
2023-07-21T16:03:33.040Z,22.80
2023-07-21T16:06:04.651Z,22.80
2023-07-21T16:08:36.172Z,22.70
2023-07-21T16:11:06.006Z,22.50
2023-07-21T16:13:36.607Z,22.20
2023-07-21T16:16:08.360Z,21.70
2023-07-21T16:18:36.563Z,21.40
2023-07-21T16:21:04.651Z,21.20
2023-07-21T16:23:32.900Z,20.80
2023-07-21T16:26:01.103Z,20.50
2023-07-21T16:28:29.295Z,19.90
2023-07-21T16:30:57.486Z,19.60
2023-07-21T16:33:25.972Z,19.40
2023-07-21T16:36:11.278Z,19.40
2023-07-21T16:38:43.000Z,19.30
2023-07-21T16:41:14.533Z,19.20
2023-07-21T16:43:42.656Z,19.20
2023-07-21T16:46:13.818Z,19.20
2023-07-21T16:48:41.933Z,19.20
2023-07-21T16:51:10.234Z,19.20
2023-07-21T16:53:38.339Z,19.20
2023-07-21T16:56:09.890Z,19.30
2023-07-21T16:58:39.385Z,19.30
2023-07-21T17:01:11.282Z,19.30
2023-07-21T17:03:39.893Z,19.20
2023-07-21T17:06:08.234Z,19.10
2023-07-21T17:08:36.405Z,19.10
2023-07-21T17:11:04.520Z,19.10
2023-07-21T17:13:32.825Z,19.10
2023-07-21T17:16:04.277Z,19.10
2023-07-21T17:18:32.359Z,18.90
2023-07-21T17:21:00.422Z,18.80
2023-07-21T17:23:28.540Z,18.90
2023-07-21T17:25:56.634Z,18.90
2023-07-21T17:28:24.865Z,19.10
2023-07-21T17:30:52.963Z,19.10
2023-07-21T17:33:21.158Z,19.30
2023-07-21T17:35:49.221Z,19.30
2023-07-21T17:38:17.397Z,19.30
2023-07-21T17:40:45.514Z,19.30
2023-07-21T17:43:13.606Z,19.30
2023-07-21T17:45:45.633Z,19.40
2023-07-21T17:48:14.245Z,19.40
2023-07-21T17:50:42.427Z,19.50
2023-07-21T17:53:11.677Z,19.60
2023-07-21T17:55:39.830Z,19.50
2023-07-21T17:58:08.264Z,19.50
2023-07-21T18:00:41.511Z,19.50
2023-07-21T18:03:14.051Z,19.40
2023-07-21T18:05:42.405Z,19.40
2023-07-21T18:08:10.988Z,19.30
2023-07-21T18:10:39.091Z,19.20
2023-07-21T18:13:09.651Z,19.10
2023-07-21T18:15:38.665Z,19.20
2023-07-21T18:18:06.997Z,19.10
2023-07-21T18:20:35.568Z,19.10
2023-07-21T18:23:04.665Z,19.00
2023-07-21T18:25:43.539Z,18.90
2023-07-21T18:28:13.513Z,18.90
2023-07-21T18:30:44.744Z,18.80
2023-07-21T18:33:13.539Z,18.80
2023-07-21T18:35:42.922Z,18.80
2023-07-21T18:38:11.091Z,18.70
2023-07-21T18:40:39.253Z,18.70
2023-07-21T18:43:07.438Z,18.80
2023-07-21T18:45:35.525Z,18.80
2023-07-21T18:48:03.621Z,18.80
2023-07-21T18:50:31.761Z,18.80
2023-07-21T18:52:59.920Z,18.70
2023-07-21T18:55:29.030Z,18.70
2023-07-21T18:58:02.382Z,18.60
2023-07-21T19:00:30.480Z,18.50
2023-07-21T19:02:58.599Z,18.50
2023-07-21T19:05:26.798Z,18.40
2023-07-21T19:07:54.928Z,18.40
2023-07-21T19:10:23.020Z,18.40
2023-07-21T19:12:51.347Z,18.30
2023-07-21T19:15:19.478Z,18.30
2023-07-21T19:17:47.781Z,18.30
2023-07-21T19:20:16.015Z,18.30
2023-07-21T19:22:44.206Z,18.10
2023-07-21T19:25:12.557Z,18.00
2023-07-21T19:27:40.968Z,18.00
2023-07-21T19:30:10.413Z,17.90
2023-07-21T19:32:38.537Z,17.80
2023-07-21T19:35:06.912Z,17.70
2023-07-21T19:37:35.190Z,17.60
2023-07-21T19:40:03.248Z,17.60
2023-07-21T19:42:32.139Z,17.50
2023-07-21T19:45:00.198Z,17.40
2023-07-21T19:47:28.327Z,17.40
2023-07-21T19:49:56.444Z,17.40
2023-07-21T19:52:24.483Z,17.30
2023-07-21T19:54:52.793Z,17.30
2023-07-21T19:57:21.893Z,17.30
2023-07-21T19:59:50.048Z,17.30
2023-07-21T20:02:18.196Z,17.30
2023-07-21T20:04:46.328Z,17.30
2023-07-21T20:07:16.162Z,17.30
2023-07-21T20:09:44.308Z,17.20
2023-07-21T20:12:12.501Z,17.10
2023-07-21T20:14:43.695Z,17.00
2023-07-21T20:17:11.803Z,16.90
2023-07-21T20:19:39.854Z,16.90
2023-07-21T20:22:08.048Z,16.90
2023-07-21T20:24:36.148Z,16.80
2023-07-21T20:27:04.281Z,16.50
2023-07-21T20:29:32.462Z,16.30
2023-07-21T20:32:00.802Z,16.30
2023-07-21T20:34:29.169Z,16.20
2023-07-21T20:36:57.321Z,16.20
2023-07-21T20:39:25.465Z,16.10
2023-07-21T20:41:53.757Z,16.20
2023-07-21T20:44:22.559Z,16.20
2023-07-21T20:46:50.666Z,16.30
2023-07-21T20:49:18.862Z,16.40
2023-07-21T20:51:48.124Z,16.30
2023-07-21T20:54:16.212Z,16.30
2023-07-21T20:56:44.262Z,16.10
2023-07-21T20:59:12.360Z,16.10
2023-07-21T21:01:40.709Z,16.00
2023-07-21T21:04:09.065Z,16.10
2023-07-21T21:06:37.341Z,16.10
2023-07-21T21:09:09.318Z,16.00
2023-07-21T21:11:38.072Z,15.90
2023-07-21T21:14:06.879Z,15.90
2023-07-21T21:16:35.043Z,16.00
2023-07-21T21:19:05.137Z,16.10
2023-07-21T21:21:33.856Z,16.20
2023-07-21T21:24:01.925Z,16.20
2023-07-21T21:26:30.622Z,16.30
2023-07-21T21:29:01.870Z,16.20
2023-07-21T21:31:30.171Z,16.20
2023-07-21T21:33:58.397Z,16.20
2023-07-21T21:36:26.802Z,16.20
2023-07-21T21:38:55.216Z,16.10
2023-07-21T21:41:23.448Z,16.00
2023-07-21T21:43:52.152Z,16.00
2023-07-21T21:46:25.689Z,16.10
2023-07-21T21:48:54.233Z,16.10
2023-07-21T21:51:24.951Z,16.10
2023-07-21T21:53:53.415Z,16.10
2023-07-21T21:56:23.269Z,16.10
2023-07-21T21:58:53.912Z,16.10
2023-07-21T22:01:22.225Z,15.90
2023-07-21T22:03:50.529Z,15.90
2023-07-21T22:06:19.074Z,15.90
2023-07-21T22:08:47.363Z,15.90
2023-07-21T22:11:15.606Z,15.90
2023-07-21T22:13:43.917Z,15.90
2023-07-21T22:16:12.140Z,15.90
2023-07-21T22:18:40.532Z,15.90
2023-07-21T22:21:08.871Z,15.80
2023-07-21T22:23:37.639Z,15.80
2023-07-21T22:26:07.149Z,15.70
2023-07-21T22:28:35.698Z,15.60
2023-07-21T22:31:13.271Z,15.60
2023-07-21T22:33:42.162Z,15.60
2023-07-21T22:36:10.607Z,15.60
2023-07-21T22:38:39.490Z,15.60
2023-07-21T22:41:07.924Z,15.60
2023-07-21T22:43:36.342Z,15.60
2023-07-21T22:46:05.121Z,15.50
2023-07-21T22:48:33.337Z,15.40
2023-07-21T22:51:05.972Z,15.30
2023-07-21T22:53:34.197Z,15.30
2023-07-21T22:56:02.495Z,15.40
2023-07-21T22:58:30.747Z,15.40
2023-07-21T23:00:59.001Z,15.40
2023-07-21T23:03:27.205Z,15.40
2023-07-21T23:05:55.604Z,15.50
2023-07-21T23:08:23.808Z,15.50
2023-07-21T23:10:51.881Z,15.60
2023-07-21T23:13:20.090Z,15.60
2023-07-21T23:15:48.275Z,15.70
2023-07-21T23:18:17.668Z,15.70
2023-07-21T23:20:49.819Z,15.70
2023-07-21T23:23:26.437Z,15.70
2023-07-21T23:25:58.143Z,15.60
2023-07-21T23:28:26.344Z,15.60
2023-07-21T23:30:59.596Z,15.60
2023-07-21T23:33:28.196Z,15.60
2023-07-21T23:35:56.339Z,15.60
2023-07-21T23:38:24.447Z,15.60
2023-07-21T23:40:52.721Z,15.50
2023-07-21T23:43:20.947Z,15.40
2023-07-21T23:45:52.172Z,15.40
2023-07-21T23:48:27.347Z,15.40
2023-07-21T23:50:55.456Z,15.40
2023-07-21T23:53:24.019Z,15.50
2023-07-21T23:55:52.398Z,15.50
2023-07-21T23:58:20.601Z,15.50
